createdAt,value
2022-08-07T00:00:03.675Z,20.09
2022-08-07T00:01:44.588Z,20.09
2022-08-07T00:02:41.009Z,20.08
2022-08-07T00:03:47.416Z,20.10
2022-08-07T00:04:50.529Z,20.11
2022-08-07T00:05:53.149Z,20.11
2022-08-07T00:06:56.889Z,20.11
2022-08-07T00:08:04.302Z,20.07
2022-08-07T00:09:17.099Z,20.05
2022-08-07T00:10:26.533Z,20.03
2022-08-07T00:11:33.151Z,20.03
2022-08-07T00:12:35.298Z,20.03
2022-08-07T00:13:58.269Z,20.06
2022-08-07T00:15:01.365Z,20.05
2022-08-07T00:16:04.938Z,20.04
2022-08-07T00:17:09.459Z,20.02
2022-08-07T00:18:19.349Z,19.98
2022-08-07T00:19:26.115Z,19.94
2022-08-07T00:20:44.902Z,19.97
2022-08-07T00:21:56.593Z,19.97
2022-08-07T00:23:07.337Z,19.97
2022-08-07T00:24:11.772Z,19.97
2022-08-07T00:25:16.735Z,19.96
2022-08-07T00:26:49.205Z,19.94
2022-08-07T00:27:52.796Z,19.94
2022-08-07T00:28:57.185Z,19.94
2022-08-07T00:29:59.130Z,19.93
2022-08-07T00:31:05.740Z,19.91
2022-08-07T00:32:08.568Z,19.91
2022-08-07T00:33:13.402Z,19.89
2022-08-07T00:34:15.478Z,19.90
2022-08-07T00:35:24.599Z,19.93
2022-08-07T00:36:27.935Z,19.92
2022-08-07T00:37:47.780Z,19.88
2022-08-07T00:38:51.617Z,19.86
2022-08-07T00:39:54.722Z,19.89
2022-08-07T00:40:58.057Z,19.91
2022-08-07T00:42:02.235Z,19.91
2022-08-07T00:43:10.011Z,19.91
2022-08-07T00:44:15.151Z,19.90
2022-08-07T00:45:17.362Z,19.89
2022-08-07T00:46:20.414Z,19.91
2022-08-07T00:48:09.518Z,19.91
2022-08-07T00:48:49.970Z,19.93
2022-08-07T00:50:19.652Z,19.94
2022-08-07T00:51:17.189Z,19.91
2022-08-07T00:52:20.053Z,19.88
2022-08-07T00:53:24.052Z,19.88
2022-08-07T00:54:26.111Z,19.88
2022-08-07T00:56:00.524Z,19.86
2022-08-07T00:56:53.847Z,19.83
2022-08-07T00:57:56.381Z,19.83
2022-08-07T00:58:59.691Z,19.83
2022-08-07T01:00:01.897Z,19.82
2022-08-07T01:01:06.017Z,19.83
2022-08-07T01:02:28.785Z,19.83
2022-08-07T01:03:55.801Z,19.84
2022-08-07T01:04:58.294Z,19.85
2022-08-07T01:06:03.160Z,19.85
2022-08-07T01:07:05.972Z,19.86
2022-08-07T01:08:11.245Z,19.87
2022-08-07T01:10:03.869Z,19.87
2022-08-07T01:10:36.740Z,19.87
2022-08-07T01:12:09.388Z,19.88
2022-08-07T01:13:03.654Z,19.87
2022-08-07T01:14:07.793Z,19.86
2022-08-07T01:15:16.939Z,19.83
2022-08-07T01:16:30.021Z,19.84
2022-08-07T01:17:36.275Z,19.83
2022-08-07T01:18:42.251Z,19.79
2022-08-07T01:19:53.880Z,19.77
2022-08-07T01:21:22.688Z,19.76
2022-08-07T01:22:29.310Z,19.77
2022-08-07T01:23:38.778Z,19.78
2022-08-07T01:24:44.846Z,19.78
2022-08-07T01:25:55.381Z,19.80
2022-08-07T01:26:59.996Z,19.79
2022-08-07T01:28:03.517Z,19.79
2022-08-07T01:29:06.273Z,19.75
2022-08-07T01:30:11.826Z,19.73
2022-08-07T01:31:27.810Z,19.70
2022-08-07T01:32:44.539Z,19.59
2022-08-07T01:33:55.905Z,19.50
2022-08-07T01:35:03.176Z,19.50
2022-08-07T01:36:09.948Z,19.48
2022-08-07T01:37:17.413Z,19.50
2022-08-07T01:38:25.491Z,19.54
2022-08-07T01:39:40.418Z,19.55
2022-08-07T01:40:56.222Z,19.57
2022-08-07T01:42:07.593Z,19.57
2022-08-07T01:43:22.015Z,19.59
2022-08-07T01:44:28.529Z,19.60
2022-08-07T01:45:36.859Z,19.61
2022-08-07T01:46:47.100Z,19.59
2022-08-07T01:48:20.310Z,19.60
2022-08-07T01:49:13.882Z,19.61
2022-08-07T01:50:28.648Z,19.62
2022-08-07T01:52:03.276Z,19.64
2022-08-07T01:52:58.828Z,19.66
2022-08-07T01:54:08.738Z,19.67
2022-08-07T01:55:22.556Z,19.67
2022-08-07T01:56:32.738Z,19.67
2022-08-07T01:58:01.350Z,19.68
2022-08-07T01:59:15.845Z,19.64
2022-08-07T02:00:19.186Z,19.62
2022-08-07T02:02:01.569Z,19.61
2022-08-07T02:03:18.324Z,19.58
2022-08-07T02:04:30.333Z,19.43
2022-08-07T02:05:43.248Z,19.42
2022-08-07T02:06:56.336Z,19.43
2022-08-07T02:08:06.350Z,19.46
2022-08-07T02:09:33.736Z,19.49
2022-08-07T02:10:42.857Z,19.50
2022-08-07T02:12:03.939Z,19.52
2022-08-07T02:13:11.782Z,19.52
2022-08-07T02:14:40.787Z,19.51
2022-08-07T02:15:53.173Z,19.49
2022-08-07T02:16:57.613Z,19.48
2022-08-07T02:18:02.896Z,19.47
2022-08-07T02:20:06.609Z,19.49
2022-08-07T02:20:34.750Z,19.52
2022-08-07T02:21:55.232Z,19.53
2022-08-07T02:23:04.440Z,19.53
2022-08-07T02:24:07.599Z,19.49
2022-08-07T02:25:18.139Z,19.40
2022-08-07T02:26:34.629Z,19.38
2022-08-07T02:27:42.778Z,19.37
2022-08-07T02:28:56.134Z,19.40
2022-08-07T02:30:03.900Z,19.43
2022-08-07T02:31:18.868Z,19.44
2022-08-07T02:32:33.686Z,19.38
2022-08-07T02:33:57.269Z,19.31
2022-08-07T02:35:06.163Z,19.17
2022-08-07T02:36:29.816Z,19.11
2022-08-07T02:37:43.901Z,19.11
2022-08-07T02:38:50.672Z,19.14
2022-08-07T02:40:11.462Z,19.16
2022-08-07T02:41:24.028Z,19.21
2022-08-07T02:42:36.964Z,19.23
2022-08-07T02:43:42.273Z,19.23
2022-08-07T02:44:53.478Z,19.25
2022-08-07T02:46:02.534Z,19.19
2022-08-07T02:47:07.964Z,19.19
2022-08-07T02:48:25.726Z,19.22
2022-08-07T02:49:58.722Z,19.12
2022-08-07T02:50:55.587Z,19.04
2022-08-07T02:52:01.683Z,19.07
2022-08-07T02:53:10.888Z,19.11
2022-08-07T02:54:16.801Z,19.14
2022-08-07T02:55:28.445Z,19.19
2022-08-07T02:56:47.571Z,19.22
2022-08-07T02:57:53.253Z,19.24
2022-08-07T02:58:55.762Z,19.25
2022-08-07T03:00:04.927Z,19.28
2022-08-07T03:01:18.721Z,19.26
2022-08-07T03:02:22.635Z,19.26
2022-08-07T03:03:42.163Z,19.27
2022-08-07T03:04:54.497Z,19.25
2022-08-07T03:05:57.747Z,19.24
2022-08-07T03:07:03.371Z,19.20
2022-08-07T03:08:16.561Z,19.18
2022-08-07T03:09:43.294Z,19.16
2022-08-07T03:10:47.263Z,19.14
2022-08-07T03:11:57.760Z,19.13
2022-08-07T03:13:05.369Z,19.16
2022-08-07T03:14:12.353Z,19.18
2022-08-07T03:15:15.200Z,19.17
2022-08-07T03:16:35.138Z,19.17
2022-08-07T03:17:53.654Z,19.17
2022-08-07T03:18:58.714Z,19.19
2022-08-07T03:20:01.478Z,19.13
2022-08-07T03:21:08.473Z,19.11
2022-08-07T03:22:18.990Z,19.11
2022-08-07T03:23:33.619Z,19.14
2022-08-07T03:24:48.990Z,19.15
2022-08-07T03:25:58.268Z,19.19
2022-08-07T03:27:09.117Z,19.21
2022-08-07T03:28:38.426Z,19.21
2022-08-07T03:29:51.131Z,19.23
2022-08-07T03:31:12.866Z,19.23
2022-08-07T03:32:20.872Z,19.23
2022-08-07T03:33:26.766Z,19.23
2022-08-07T03:34:39.555Z,19.16
2022-08-07T03:35:50.814Z,19.07
2022-08-07T03:36:57.301Z,19.01
2022-08-07T03:38:04.823Z,18.99
2022-08-07T03:39:12.991Z,19.01
2022-08-07T03:40:19.778Z,19.02
2022-08-07T03:41:42.466Z,19.02
2022-08-07T03:42:49.561Z,19.02
2022-08-07T03:43:57.464Z,18.98
2022-08-07T03:45:04.978Z,19.00
2022-08-07T03:46:18.125Z,19.03
2022-08-07T03:47:23.092Z,19.04
2022-08-07T03:48:26.702Z,19.03
2022-08-07T03:49:35.025Z,19.04
2022-08-07T03:50:38.911Z,19.08
2022-08-07T03:52:00.989Z,19.11
2022-08-07T03:53:06.895Z,19.13
2022-08-07T03:54:36.002Z,19.11
2022-08-07T03:55:58.303Z,19.13
2022-08-07T03:57:06.221Z,19.14
2022-08-07T03:59:05.667Z,19.15
2022-08-07T03:59:34.623Z,19.15
2022-08-07T04:00:38.675Z,19.14
2022-08-07T04:01:50.993Z,19.14
2022-08-07T04:02:57.168Z,19.13
2022-08-07T04:04:06.064Z,19.13
2022-08-07T04:05:09.751Z,19.12
2022-08-07T04:06:37.308Z,19.06
2022-08-07T04:07:42.449Z,19.06
2022-08-07T04:08:49.215Z,19.06
2022-08-07T04:09:53.224Z,19.03
2022-08-07T04:12:24.146Z,19.00
2022-08-07T04:12:28.787Z,18.98
2022-08-07T04:14:10.311Z,18.94
2022-08-07T04:15:00.283Z,18.93
2022-08-07T04:16:06.298Z,18.95
2022-08-07T04:17:20.066Z,18.96
2022-08-07T04:18:58.386Z,18.97
2022-08-07T04:19:52.270Z,18.97
2022-08-07T04:20:56.876Z,18.99
2022-08-07T04:22:08.639Z,19.00
2022-08-07T04:23:19.408Z,18.98
2022-08-07T04:24:30.437Z,18.99
2022-08-07T04:25:40.879Z,18.99
2022-08-07T04:26:46.507Z,18.92
2022-08-07T04:27:59.354Z,18.87
2022-08-07T04:29:04.461Z,18.87
2022-08-07T04:30:13.440Z,18.87
2022-08-07T04:31:39.090Z,18.90
2022-08-07T04:32:58.219Z,18.93
2022-08-07T04:34:04.214Z,18.94
2022-08-07T04:35:19.544Z,18.96
2022-08-07T04:36:26.081Z,18.96
2022-08-07T04:37:29.176Z,18.94
2022-08-07T04:38:43.674Z,18.94
2022-08-07T04:39:47.916Z,18.95
2022-08-07T04:40:56.842Z,18.96
2022-08-07T04:42:15.973Z,18.98
2022-08-07T04:43:21.104Z,18.98
2022-08-07T04:44:26.045Z,18.99
2022-08-07T04:46:00.314Z,19.00
2022-08-07T04:47:08.975Z,19.01
2022-08-07T04:48:28.227Z,19.01
2022-08-07T04:49:57.974Z,19.01
2022-08-07T04:51:12.164Z,19.00
2022-08-07T04:52:31.372Z,18.98
2022-08-07T04:54:05.382Z,18.99
2022-08-07T04:55:15.210Z,19.01
2022-08-07T04:58:15.885Z,19.00
2022-08-07T04:58:34.852Z,19.02
2022-08-07T05:00:10.747Z,19.06
2022-08-07T05:01:15.772Z,19.10
2022-08-07T05:02:27.218Z,19.14
2022-08-07T05:03:59.876Z,19.20
2022-08-07T05:05:12.038Z,19.28
2022-08-07T05:06:43.539Z,19.34
2022-08-07T05:08:01.959Z,19.38
2022-08-07T05:09:16.559Z,19.42
2022-08-07T05:10:24.188Z,19.45
2022-08-07T05:11:58.933Z,19.43
2022-08-07T05:14:44.784Z,19.45
2022-08-07T05:14:52.563Z,19.44
2022-08-07T05:15:53.734Z,19.46
2022-08-07T05:17:01.639Z,19.44
2022-08-07T05:18:13.407Z,19.42
2022-08-07T05:19:32.676Z,19.39
2022-08-07T05:20:52.174Z,19.37
2022-08-07T05:22:04.507Z,19.34
2022-08-07T05:23:15.827Z,19.34
2022-08-07T05:24:24.638Z,19.32
2022-08-07T05:25:54.523Z,19.27
2022-08-07T05:27:00.842Z,19.22
2022-08-07T05:28:20.728Z,19.22
2022-08-07T05:29:38.818Z,19.23
2022-08-07T05:30:53.192Z,19.18
2022-08-07T05:31:56.429Z,19.20
2022-08-07T05:33:06.275Z,19.21
2022-08-07T05:34:11.917Z,19.24
2022-08-07T05:35:33.131Z,19.22
2022-08-07T05:36:38.955Z,19.24
2022-08-07T05:37:47.367Z,19.23
2022-08-07T05:40:05.731Z,19.25
2022-08-07T05:40:50.546Z,19.26
2022-08-07T05:42:02.735Z,19.30
2022-08-07T05:43:06.216Z,19.32
2022-08-07T05:44:14.741Z,19.35
2022-08-07T05:45:26.222Z,19.38
2022-08-07T05:46:51.302Z,19.37
2022-08-07T05:48:01.114Z,19.38
2022-08-07T05:49:12.500Z,19.42
2022-08-07T05:50:18.866Z,19.46
2022-08-07T05:51:22.984Z,19.48
2022-08-07T05:52:32.496Z,19.48
2022-08-07T05:54:14.151Z,19.50
2022-08-07T05:55:06.803Z,19.54
2022-08-07T05:56:15.374Z,19.56
2022-08-07T05:57:26.575Z,19.58
2022-08-07T05:58:36.864Z,19.59
2022-08-07T05:59:56.105Z,19.59
2022-08-07T06:01:08.437Z,19.57
2022-08-07T06:02:21.516Z,19.57
2022-08-07T06:03:51.573Z,19.55
2022-08-07T06:05:03.863Z,19.53
2022-08-07T06:06:07.473Z,19.53
2022-08-07T06:07:22.991Z,19.48
2022-08-07T06:08:42.065Z,19.44
2022-08-07T06:10:05.765Z,19.22
2022-08-07T06:11:09.994Z,19.12
2022-08-07T06:12:12.427Z,19.22
2022-08-07T06:13:19.110Z,19.30
2022-08-07T06:14:34.349Z,19.36
2022-08-07T06:15:42.327Z,19.39
2022-08-07T06:16:56.418Z,19.33
2022-08-07T06:18:09.623Z,19.29
2022-08-07T06:19:17.600Z,19.36
2022-08-07T06:20:25.462Z,19.29
2022-08-07T06:22:16.918Z,19.16
2022-08-07T06:23:45.922Z,19.20
2022-08-07T06:24:45.991Z,19.32
2022-08-07T06:25:57.035Z,19.40
2022-08-07T06:27:03.760Z,19.48
2022-08-07T06:28:09.416Z,19.56
2022-08-07T06:29:17.142Z,19.62
2022-08-07T06:30:31.945Z,19.59
2022-08-07T06:31:50.021Z,19.58
2022-08-07T06:32:55.961Z,19.62
2022-08-07T06:33:58.928Z,19.67
2022-08-07T06:35:01.364Z,19.65
2022-08-07T06:36:06.660Z,19.69
2022-08-07T06:37:43.555Z,19.77
2022-08-07T06:38:51.670Z,19.85
2022-08-07T06:40:16.427Z,19.94
2022-08-07T06:42:00.417Z,20.01
2022-08-07T06:42:54.457Z,20.04
2022-08-07T06:44:14.757Z,19.99
2022-08-07T06:45:24.618Z,19.90
2022-08-07T06:46:35.492Z,19.91
2022-08-07T06:47:57.228Z,19.85
2022-08-07T06:49:04.376Z,19.81
2022-08-07T06:50:10.935Z,19.78
2022-08-07T06:51:31.114Z,19.79
2022-08-07T06:52:42.879Z,19.84
2022-08-07T06:55:28.486Z,19.88
2022-08-07T06:55:31.765Z,19.94
2022-08-07T06:56:48.658Z,19.99
2022-08-07T06:58:01.710Z,20.04
2022-08-07T07:00:14.490Z,20.08
2022-08-07T07:00:39.673Z,20.16
2022-08-07T07:01:50.935Z,20.18
2022-08-07T07:02:58.047Z,20.23
2022-08-07T07:04:32.627Z,20.22
2022-08-07T07:06:03.041Z,20.22
2022-08-07T07:06:57.588Z,20.21
2022-08-07T07:08:07.382Z,20.17
2022-08-07T07:09:21.127Z,20.10
2022-08-07T07:10:31.129Z,20.04
2022-08-07T07:12:08.692Z,19.98
2022-08-07T07:13:02.501Z,20.00
2022-08-07T07:14:08.274Z,20.00
2022-08-07T07:15:23.812Z,20.04
2022-08-07T07:16:34.182Z,20.09
2022-08-07T07:17:54.017Z,20.13
2022-08-07T07:19:11.279Z,20.09
2022-08-07T07:20:33.291Z,20.06
2022-08-07T07:22:05.392Z,19.99
2022-08-07T07:24:08.947Z,20.03
2022-08-07T07:24:29.966Z,20.02
2022-08-07T07:26:32.404Z,20.01
2022-08-07T07:27:03.306Z,20.03
2022-08-07T07:28:42.537Z,20.06
2022-08-07T07:30:09.224Z,20.09
2022-08-07T07:31:07.087Z,20.18
2022-08-07T07:32:14.026Z,20.18
2022-08-07T07:33:19.868Z,20.14
2022-08-07T07:34:31.233Z,20.07
2022-08-07T07:35:50.638Z,20.03
2022-08-07T07:37:14.520Z,20.02
2022-08-07T07:38:25.913Z,19.98
2022-08-07T07:39:45.472Z,19.95
2022-08-07T07:41:00.032Z,19.93
2022-08-07T07:42:13.309Z,19.90
2022-08-07T07:43:27.714Z,19.87
2022-08-07T07:44:49.644Z,19.84
2022-08-07T07:46:37.691Z,19.82
2022-08-07T07:47:22.861Z,19.74
2022-08-07T07:48:41.269Z,19.69
2022-08-07T07:50:34.299Z,19.67
2022-08-07T07:51:15.466Z,19.53
2022-08-07T07:52:19.719Z,19.50
2022-08-07T07:53:25.748Z,19.31
2022-08-07T07:54:30.497Z,19.18
2022-08-07T07:55:37.130Z,19.10
2022-08-07T07:56:41.462Z,19.17
2022-08-07T07:57:52.907Z,19.16
2022-08-07T07:58:57.034Z,19.18
2022-08-07T08:00:02.149Z,19.23
2022-08-07T08:02:03.151Z,19.28
2022-08-07T08:03:04.596Z,19.37
2022-08-07T08:04:11.629Z,19.42
2022-08-07T08:05:16.505Z,19.44
2022-08-07T08:06:21.337Z,19.46
2022-08-07T08:07:26.597Z,19.43
2022-08-07T08:08:39.244Z,19.39
2022-08-07T08:09:52.047Z,19.41
2022-08-07T08:11:09.283Z,19.44
2022-08-07T08:12:42.929Z,19.49
2022-08-07T08:13:54.852Z,19.57
2022-08-07T08:14:57.959Z,19.57
2022-08-07T08:16:04.097Z,19.58
2022-08-07T08:17:55.934Z,19.56
2022-08-07T08:18:34.541Z,19.59
2022-08-07T08:20:16.943Z,19.58
2022-08-07T08:21:07.568Z,19.62
2022-08-07T08:22:33.074Z,19.68
2022-08-07T08:23:54.859Z,19.78
2022-08-07T08:25:24.756Z,19.85
2022-08-07T08:26:58.160Z,19.86
2022-08-07T08:28:05.871Z,19.85
2022-08-07T08:29:10.406Z,19.86
2022-08-07T08:30:14.322Z,19.88
2022-08-07T08:31:59.206Z,19.90
2022-08-07T08:32:52.549Z,19.84
2022-08-07T08:33:57.921Z,19.82
2022-08-07T08:35:02.634Z,19.74
2022-08-07T08:36:07.457Z,19.72
2022-08-07T08:37:59.219Z,19.64
2022-08-07T08:38:41.344Z,19.63
2022-08-07T08:39:54.835Z,19.59
2022-08-07T08:41:06.692Z,19.52
2022-08-07T08:42:20.584Z,19.53
2022-08-07T08:43:42.444Z,19.53
2022-08-07T08:45:04.185Z,19.48
2022-08-07T08:46:13.049Z,19.47
2022-08-07T08:47:25.744Z,19.47
2022-08-07T08:48:36.154Z,19.41
2022-08-07T08:49:46.822Z,19.41
2022-08-07T08:51:22.448Z,19.41
2022-08-07T08:52:53.613Z,19.36
2022-08-07T08:54:03.573Z,19.40
2022-08-07T08:55:12.992Z,19.47
2022-08-07T08:56:27.617Z,19.42
2022-08-07T08:57:38.797Z,19.37
2022-08-07T08:58:50.680Z,19.40
2022-08-07T09:00:02.148Z,19.49
2022-08-07T09:01:15.296Z,19.57
2022-08-07T09:02:37.527Z,19.63
2022-08-07T09:03:52.918Z,19.67
2022-08-07T09:05:00.545Z,19.69
2022-08-07T09:06:11.376Z,19.63
2022-08-07T09:07:23.199Z,19.70
2022-08-07T09:08:42.480Z,19.78
2022-08-07T09:10:03.166Z,19.85
2022-08-07T09:11:43.028Z,19.86
2022-08-07T09:12:54.074Z,19.87
2022-08-07T09:14:08.688Z,19.88
2022-08-07T09:16:24.535Z,19.89
2022-08-07T09:17:01.436Z,19.87
2022-08-07T09:18:23.360Z,19.91
2022-08-07T09:19:51.570Z,19.97
2022-08-07T09:21:05.873Z,20.02
2022-08-07T09:24:30.926Z,20.06
2022-08-07T09:24:31.520Z,20.10
2022-08-07T09:25:38.773Z,20.15
2022-08-07T09:26:47.941Z,20.16
2022-08-07T09:28:03.129Z,20.19
2022-08-07T09:30:05.237Z,20.22
2022-08-07T09:30:55.070Z,20.25
2022-08-07T09:32:18.661Z,20.24
2022-08-07T09:33:57.059Z,20.25
2022-08-07T09:36:02.926Z,20.27
2022-08-07T09:36:37.440Z,20.29
2022-08-07T09:37:53.967Z,20.31
2022-08-07T09:39:11.365Z,20.32
2022-08-07T09:40:39.061Z,20.33
2022-08-07T09:42:03.057Z,20.28
2022-08-07T09:43:40.330Z,20.25
2022-08-07T09:47:25.420Z,20.25
2022-08-07T09:47:52.427Z,20.23
2022-08-07T09:48:29.745Z,20.22
2022-08-07T09:50:00.406Z,20.24
2022-08-07T09:52:16.848Z,20.24
2022-08-07T09:52:51.756Z,20.22
2022-08-07T09:54:02.844Z,20.22
2022-08-07T09:55:17.072Z,20.22
2022-08-07T09:56:58.949Z,20.21
2022-08-07T09:58:31.971Z,20.21
2022-08-07T10:00:00.904Z,20.21
2022-08-07T10:01:52.239Z,20.20
2022-08-07T10:04:05.538Z,20.22
2022-08-07T10:04:59.590Z,20.23
2022-08-07T10:06:24.724Z,20.19
2022-08-07T10:07:53.760Z,20.18
2022-08-07T10:09:15.433Z,20.14
2022-08-07T10:10:30.614Z,20.10
2022-08-07T10:12:02.013Z,20.15
2022-08-07T10:14:01.359Z,20.20
2022-08-07T10:15:26.253Z,20.24
2022-08-07T10:16:49.874Z,20.26
2022-08-07T10:18:26.401Z,20.27
2022-08-07T10:19:40.667Z,20.29
2022-08-07T10:20:58.863Z,20.31
2022-08-07T10:22:18.463Z,20.35
2022-08-07T10:24:06.925Z,20.38
2022-08-07T10:25:32.832Z,20.40
2022-08-07T10:26:53.749Z,20.42
2022-08-07T10:28:13.427Z,20.44
2022-08-07T10:29:38.387Z,20.45
2022-08-07T10:30:58.677Z,20.48
2022-08-07T10:32:51.049Z,20.46
2022-08-07T10:34:05.689Z,20.42
2022-08-07T10:35:26.942Z,20.42
2022-08-07T10:37:03.843Z,20.42
2022-08-07T10:38:36.044Z,20.44
2022-08-07T10:40:02.837Z,20.49
2022-08-07T10:41:46.288Z,20.51
2022-08-07T10:42:43.830Z,20.50
2022-08-07T10:44:07.272Z,20.51
2022-08-07T10:45:45.366Z,20.54
2022-08-07T10:46:54.981Z,20.56
2022-08-07T10:48:09.741Z,20.59
2022-08-07T10:49:22.144Z,20.58
2022-08-07T10:50:50.630Z,20.59
2022-08-07T10:52:12.753Z,20.60
2022-08-07T10:53:27.051Z,20.61
2022-08-07T10:54:36.639Z,20.66
2022-08-07T10:55:47.409Z,20.68
2022-08-07T10:57:08.289Z,20.70
2022-08-07T10:58:31.991Z,20.72
2022-08-07T10:59:52.136Z,20.73
2022-08-07T11:01:11.420Z,20.77
2022-08-07T11:02:33.086Z,20.79
2022-08-07T11:03:51.216Z,20.80
2022-08-07T11:05:11.161Z,20.82
2022-08-07T11:06:21.940Z,20.82
2022-08-07T11:07:59.182Z,20.85
2022-08-07T11:09:11.238Z,20.87
2022-08-07T11:10:20.642Z,20.88
2022-08-07T11:11:35.593Z,20.90
2022-08-07T11:12:45.282Z,20.93
2022-08-07T11:14:56.956Z,20.91
2022-08-07T11:15:26.363Z,20.90
2022-08-07T11:16:40.043Z,20.89
2022-08-07T11:17:48.653Z,20.89
2022-08-07T11:18:57.675Z,20.89
2022-08-07T11:20:06.413Z,20.92
2022-08-07T11:21:23.742Z,20.91
2022-08-07T11:22:43.914Z,20.92
2022-08-07T11:23:58.771Z,20.92
2022-08-07T11:25:09.682Z,20.94
2022-08-07T11:26:18.614Z,20.93
2022-08-07T11:28:00.993Z,20.93
2022-08-07T11:28:57.787Z,20.93
2022-08-07T11:30:18.201Z,20.92
2022-08-07T11:31:35.163Z,20.91
2022-08-07T11:32:41.585Z,20.93
2022-08-07T11:33:59.141Z,20.98
2022-08-07T11:35:09.434Z,20.97
2022-08-07T11:36:30.749Z,20.96
2022-08-07T11:37:58.002Z,21.00
2022-08-07T11:39:59.285Z,21.01
2022-08-07T11:40:58.693Z,20.99
2022-08-07T11:42:19.241Z,20.97
2022-08-07T11:43:29.809Z,20.99
2022-08-07T11:44:57.856Z,21.01
2022-08-07T11:46:17.065Z,21.01
2022-08-07T11:47:39.073Z,21.05
2022-08-07T11:49:51.599Z,21.04
2022-08-07T11:50:57.202Z,21.05
2022-08-07T11:52:14.338Z,21.04
2022-08-07T11:53:35.574Z,21.06
2022-08-07T11:54:54.603Z,21.06
2022-08-07T11:56:27.532Z,21.05
2022-08-07T11:58:00.402Z,21.04
2022-08-07T12:00:08.985Z,21.04
2022-08-07T12:00:53.641Z,21.09
2022-08-07T12:02:30.037Z,21.12
2022-08-07T12:04:04.100Z,21.14
2022-08-07T12:05:28.766Z,21.13
2022-08-07T12:06:51.654Z,21.12
2022-08-07T12:08:25.498Z,21.16
2022-08-07T12:09:37.047Z,21.15
2022-08-07T12:10:45.153Z,21.15
2022-08-07T12:12:10.233Z,21.16
2022-08-07T12:13:35.456Z,21.19
2022-08-07T12:14:55.547Z,21.20
2022-08-07T12:16:09.217Z,21.20
2022-08-07T12:17:20.305Z,21.21
2022-08-07T12:18:34.229Z,21.21
2022-08-07T12:20:03.212Z,21.20
2022-08-07T12:21:55.067Z,21.20
2022-08-07T12:22:58.481Z,21.19
2022-08-07T12:24:36.965Z,21.22
2022-08-07T12:26:03.083Z,21.22
2022-08-07T12:27:27.868Z,21.22
2022-08-07T12:28:44.973Z,21.21
2022-08-07T12:29:56.804Z,21.17
2022-08-07T12:31:11.561Z,21.15
2022-08-07T12:32:23.428Z,21.15
2022-08-07T12:33:46.280Z,21.14
2022-08-07T12:34:56.133Z,21.14
2022-08-07T12:36:02.288Z,21.14
2022-08-07T12:37:17.006Z,21.14
2022-08-07T12:38:32.056Z,21.12
2022-08-07T12:39:50.804Z,21.13
2022-08-07T12:40:55.426Z,21.15
2022-08-07T12:42:02.408Z,21.19
2022-08-07T12:43:09.512Z,21.21
2022-08-07T12:44:17.334Z,21.22
2022-08-07T12:45:22.476Z,21.22
2022-08-07T12:46:38.194Z,21.23
2022-08-07T12:47:50.579Z,21.24
2022-08-07T12:49:09.792Z,21.24
2022-08-07T12:50:40.360Z,21.29
2022-08-07T12:52:12.454Z,21.29
2022-08-07T12:53:27.626Z,21.28
2022-08-07T12:54:38.046Z,21.25
2022-08-07T12:56:02.905Z,21.24
2022-08-07T12:57:10.614Z,21.23
2022-08-07T12:58:15.841Z,21.23
2022-08-07T12:59:21.905Z,21.28
2022-08-07T13:00:34.505Z,21.31
2022-08-07T13:01:55.619Z,21.28
2022-08-07T13:03:27.595Z,21.26
2022-08-07T13:05:01.555Z,21.28
2022-08-07T13:06:21.915Z,21.31
2022-08-07T13:08:12.080Z,21.33
2022-08-07T13:10:21.693Z,21.35
2022-08-07T13:11:04.322Z,21.38
2022-08-07T13:12:15.362Z,21.39
2022-08-07T13:13:48.212Z,21.42
2022-08-07T13:15:14.138Z,21.43
2022-08-07T13:16:27.301Z,21.42
2022-08-07T13:17:42.731Z,21.43
2022-08-07T13:18:54.629Z,21.43
2022-08-07T13:20:03.645Z,21.40
2022-08-07T13:21:15.621Z,21.38
2022-08-07T13:22:43.256Z,21.36
2022-08-07T13:24:04.710Z,21.38
2022-08-07T13:25:23.926Z,21.37
2022-08-07T13:26:43.089Z,21.37
2022-08-07T13:28:11.619Z,21.38
2022-08-07T13:29:21.671Z,21.39
2022-08-07T13:30:40.145Z,21.39
2022-08-07T13:31:57.771Z,21.40
2022-08-07T13:34:11.679Z,21.39
2022-08-07T13:34:44.852Z,21.38
2022-08-07T13:35:59.536Z,21.38
2022-08-07T13:37:10.685Z,21.39
2022-08-07T13:38:28.433Z,21.40
2022-08-07T13:40:33.721Z,21.43
2022-08-07T13:41:08.847Z,21.46
2022-08-07T13:42:14.589Z,21.48
2022-08-07T13:43:26.277Z,21.47
2022-08-07T13:44:34.566Z,21.47
2022-08-07T13:46:11.533Z,21.47
2022-08-07T13:47:15.151Z,21.46
2022-08-07T13:48:31.777Z,21.46
2022-08-07T13:50:33.936Z,21.49
2022-08-07T13:51:26.870Z,21.52
2022-08-07T13:52:38.099Z,21.51
2022-08-07T13:53:59.441Z,21.49
2022-08-07T13:55:10.903Z,21.48
2022-08-07T13:56:19.051Z,21.47
2022-08-07T13:57:38.123Z,21.46
2022-08-07T13:59:01.002Z,21.44
2022-08-07T14:00:06.436Z,21.48
2022-08-07T14:01:20.317Z,21.47
2022-08-07T14:02:29.617Z,21.50
2022-08-07T14:04:06.986Z,21.49
2022-08-07T14:05:07.241Z,21.49
2022-08-07T14:06:12.723Z,21.49
2022-08-07T14:07:16.733Z,21.49
2022-08-07T14:08:21.483Z,21.49
2022-08-07T14:10:01.933Z,21.48
2022-08-07T14:11:01.899Z,21.49
2022-08-07T14:12:27.393Z,21.51
2022-08-07T14:13:33.568Z,21.53
2022-08-07T14:14:42.575Z,21.52
2022-08-07T14:15:52.024Z,21.51
2022-08-07T14:16:57.618Z,21.50
2022-08-07T14:18:16.121Z,21.48
2022-08-07T14:20:42.000Z,21.48
2022-08-07T14:21:08.311Z,21.49
2022-08-07T14:22:34.692Z,21.48
2022-08-07T14:24:00.085Z,21.46
2022-08-07T14:25:08.227Z,21.46
2022-08-07T14:26:29.914Z,21.46
2022-08-07T14:28:10.349Z,21.47
2022-08-07T14:30:02.532Z,21.50
2022-08-07T14:30:33.066Z,21.48
2022-08-07T14:31:42.867Z,21.51
2022-08-07T14:32:58.148Z,21.51
2022-08-07T14:34:01.672Z,21.50
2022-08-07T14:35:17.029Z,21.49
2022-08-07T14:36:41.432Z,21.49
2022-08-07T14:38:03.313Z,21.48
2022-08-07T14:39:12.547Z,21.47
2022-08-07T14:40:35.737Z,21.48
2022-08-07T14:42:20.183Z,21.49
2022-08-07T14:43:57.265Z,21.51
2022-08-07T14:44:30.249Z,21.51
2022-08-07T14:45:46.748Z,21.51
2022-08-07T14:47:08.464Z,21.52
2022-08-07T14:48:20.806Z,21.52
2022-08-07T14:50:56.186Z,21.52
2022-08-07T14:52:04.612Z,21.53
2022-08-07T14:54:08.681Z,21.51
2022-08-07T14:54:54.025Z,21.50
2022-08-07T14:56:00.907Z,21.50
2022-08-07T14:57:07.542Z,21.50
2022-08-07T14:58:24.126Z,21.51
2022-08-07T15:00:04.615Z,21.51
2022-08-07T15:00:53.325Z,21.49
2022-08-07T15:01:58.250Z,21.50
2022-08-07T15:04:29.374Z,21.49
2022-08-07T15:05:35.976Z,21.49
2022-08-07T15:07:00.930Z,21.49
2022-08-07T15:08:07.200Z,21.49
2022-08-07T15:12:10.170Z,21.48
2022-08-07T15:13:05.804Z,21.48
2022-08-07T15:13:35.934Z,21.49
2022-08-07T15:14:58.355Z,21.50
2022-08-07T15:16:04.606Z,21.50
2022-08-07T15:17:16.686Z,21.51
2022-08-07T15:18:33.601Z,21.50
2022-08-07T15:21:58.960Z,21.50
2022-08-07T15:22:51.634Z,21.52
2022-08-07T15:25:36.712Z,21.52
2022-08-07T15:26:43.969Z,21.52
2022-08-07T15:30:06.635Z,21.50
2022-08-07T15:32:11.769Z,21.52
2022-08-07T15:33:20.134Z,21.51
2022-08-07T15:34:26.216Z,21.53
2022-08-07T15:37:02.909Z,21.54
2022-08-07T15:38:30.123Z,21.55
2022-08-07T15:41:22.829Z,21.56
2022-08-07T15:42:52.097Z,21.54
2022-08-07T15:44:01.348Z,21.53
2022-08-07T15:46:38.516Z,21.52
2022-08-07T15:48:00.786Z,21.52
2022-08-07T15:49:14.248Z,21.51
2022-08-07T15:50:37.530Z,21.51
2022-08-07T15:53:06.455Z,21.52
2022-08-07T15:54:13.998Z,21.51
2022-08-07T15:55:20.699Z,21.52
2022-08-07T15:56:38.137Z,21.51
2022-08-07T15:57:49.390Z,21.52
2022-08-07T15:58:55.048Z,21.52
2022-08-07T16:00:04.183Z,21.52
2022-08-07T16:01:20.912Z,21.53
2022-08-07T16:02:26.094Z,21.52
2022-08-07T16:03:46.420Z,21.53
2022-08-07T16:04:49.664Z,21.53
2022-08-07T16:05:54.378Z,21.52
2022-08-07T16:06:59.495Z,21.52
2022-08-07T16:08:32.057Z,21.51
2022-08-07T16:09:54.043Z,21.50
2022-08-07T16:11:02.517Z,21.50
2022-08-07T16:12:15.084Z,21.49
2022-08-07T16:13:58.684Z,21.50
2022-08-07T16:15:55.029Z,21.49
2022-08-07T16:18:00.679Z,21.50
2022-08-07T16:18:57.961Z,21.51
2022-08-07T16:20:33.954Z,21.50
2022-08-07T16:22:02.238Z,21.49
2022-08-07T16:23:25.222Z,21.48
2022-08-07T16:24:52.823Z,21.48
2022-08-07T16:26:10.239Z,21.48
2022-08-07T16:27:25.407Z,21.47
2022-08-07T16:30:05.490Z,21.47
2022-08-07T16:30:30.511Z,21.46